Time;durP1;ratioP1;P1;durP2;ratioP2;P2;SDS_P1;SDS_P2;PMS_P1;PMS_P2;Temp;Humidity;BMP_temperature;BMP_pressure;BME280_temperature;BME280_humidity;BME280_pressure;Samples;Min_cycle;Max_cycle;Signal;HPM_P1;HPM_P2
2023/10/15 00:00:18;;;;;;;7.30;1.10;;;;;;;;;;4957764;28;20051;-77
2023/10/15 00:02:45;;;;;;;8.93;1.40;;;;;;;;;;4956970;28;20050;-77
2023/10/15 00:05:14;;;;;;;10.35;1.77;;;;;;;;;;4963537;28;20911;-78
2023/10/15 00:07:39;;;;;;;8.00;1.50;;;;;;;;;;4957649;28;20026;-76
2023/10/15 00:10:25;;;;;;;8.60;1.67;;;;;;;;;;4962408;28;20887;-77
2023/10/15 00:12:52;;;;;;;7.90;1.45;;;;;;;;;;4962318;28;20152;-77
2023/10/15 00:15:23;;;;;;;;;;;;;;;;;;4956746;28;20051;-77
2023/10/15 00:17:53;;;;;;;9.40;1.80;;;;;;;;;;4956223;28;20493;-78
2023/10/15 00:20:20;;;;;;;6.20;1.67;;;;;;;;;;4956263;28;20558;-78
2023/10/15 00:22:50;;;;;;;6.68;1.13;;;;;;;;;;4972947;28;20036;-78
2023/10/15 00:25:18;;;;;;;7.25;1.10;;;;;;;;;;4977378;28;20907;-77
2023/10/15 00:27:56;;;;;;;5.32;1.55;;;;;;;;;;4940955;28;20039;-77
2023/10/15 00:30:22;;;;;;;8.90;1.48;;;;;;;;;;4958576;28;20368;-78
2023/10/15 00:32:49;;;;;;;7.78;1.40;;;;;;;;;;4959275;28;20525;-78
2023/10/15 00:35:21;;;;;;;8.90;1.70;;;;;;;;;;4962287;28;20043;-78
2023/10/15 00:37:54;;;;;;;6.20;1.50;;;;;;;;;;4956047;28;20037;-78
2023/10/15 00:40:24;;;;;;;7.15;1.20;;;;;;;;;;4941831;28;20123;-78
2023/10/15 00:42:49;;;;;;;8.02;1.65;;;;;;;;;;4949619;28;20131;-77
2023/10/15 00:45:17;;;;;;;6.97;1.38;;;;;;;;;;4954922;28;20065;-77
2023/10/15 00:48:08;;;;;;;7.10;1.83;;;;;;;;;;4971166;28;20389;-77
2023/10/15 00:50:41;;;;;;;8.60;1.50;;;;;;;;;;4948216;28;20058;-76
2023/10/15 00:53:21;;;;;;;7.32;1.48;;;;;;;;;;4958312;28;20046;-76
2023/10/15 00:55:51;;;;;;;7.65;1.73;;;;;;;;;;4955829;28;20053;-77
2023/10/15 00:58:21;;;;;;;9.15;1.88;;;;;;;;;;4956794;28;20051;-77
2023/10/15 01:03:17;;;;;;;8.48;1.77;;;;;;;;;;4955279;28;20145;-77
2023/10/15 01:05:52;;;;;;;7.78;1.45;;;;;;;;;;4937872;28;20031;-77
2023/10/15 01:08:18;;;;;;;6.80;1.65;;;;;;;;;;4963008;28;20122;-77
2023/10/15 01:10:43;;;;;;;10.88;1.83;;;;;;;;;;4938634;28;20793;-79
2023/10/15 01:13:21;;;;;;;9.52;1.50;;;;;;;;;;4955021;28;20039;-78
2023/10/15 01:15:48;;;;;;;7.38;1.52;;;;;;;;;;4946217;28;20038;-77
2023/10/15 01:18:15;;;;;;;7.18;1.40;;;;;;;;;;4955008;28;20036;-78
2023/10/15 01:20:43;;;;;;;10.25;1.42;;;;;;;;;;4955165;28;20039;-78
2023/10/15 01:23:25;;;;;;;8.88;1.60;;;;;;;;;;4950503;28;20666;-78
2023/10/15 01:25:50;;;;;;;11.18;1.50;;;;;;;;;;4958188;28;20070;-77
2023/10/15 01:28:16;;;;;;;7.95;1.52;;;;;;;;;;4965514;28;20521;-78
2023/10/15 01:30:41;;;;;;;15.23;2.03;;;;;;;;;;4943622;28;20402;-78
2023/10/15 01:33:10;;;;;;;7.38;1.38;;;;;;;;;;4942024;28;20039;-78
2023/10/15 01:35:38;;;;;;;7.90;1.65;;;;;;;;;;4958179;28;20038;-78
2023/10/15 01:38:10;;;;;;;6.28;1.55;;;;;;;;;;4976808;28;20118;-78
2023/10/15 01:40:44;;;;;;;9.23;1.33;;;;;;;;;;4958556;28;20070;-78
2023/10/15 01:43:14;;;;;;;9.43;1.70;;;;;;;;;;4960020;28;20090;-78
2023/10/15 01:45:41;;;;;;;7.68;1.70;;;;;;;;;;4941795;28;20082;-77
2023/10/15 01:48:13;;;;;;;14.43;1.90;;;;;;;;;;4974943;28;20098;-76
2023/10/15 01:50:51;;;;;;;9.85;1.20;;;;;;;;;;4943947;28;20035;-77
2023/10/15 01:53:23;;;;;;;8.73;1.30;;;;;;;;;;4964382;28;20039;-76
2023/10/15 01:55:59;;;;;;;6.50;1.33;;;;;;;;;;4964870;28;20114;-76
2023/10/15 01:58:30;;;;;;;10.13;1.40;;;;;;;;;;4966124;28;20039;-77
2023/10/15 02:00:56;;;;;;;8.80;2.03;;;;;;;;;;4959241;28;20386;-76
2023/10/15 02:03:21;;;;;;;8.32;1.20;;;;;;;;;;4959908;28;20027;-77
2023/10/15 02:05:47;;;;;;;10.13;1.50;;;;;;;;;;4952732;28;20047;-76
2023/10/15 02:08:23;;;;;;;11.50;2.05;;;;;;;;;;4940997;28;20047;-76
2023/10/15 02:10:49;;;;;;;8.75;1.65;;;;;;;;;;4973597;28;20112;-78
2023/10/15 02:13:19;;;;;;;7.43;1.63;;;;;;;;;;4974870;28;20043;-77
2023/10/15 02:15:46;;;;;;;8.80;1.60;;;;;;;;;;4957968;28;20130;-77
2023/10/15 02:18:17;;;;;;;7.30;1.47;;;;;;;;;;4956940;28;20039;-77
2023/10/15 02:23:18;;;;;;;8.18;1.55;;;;;;;;;;4974445;28;20078;-77
2023/10/15 02:25:46;;;;;;;7.75;1.40;;;;;;;;;;4948227;28;20535;-77
2023/10/15 02:28:20;;;;;;;9.95;1.75;;;;;;;;;;4963638;28;20038;-77
2023/10/15 02:30:48;;;;;;;9.00;1.63;;;;;;;;;;4949289;28;20041;-77
2023/10/15 02:33:17;;;;;;;10.15;1.50;;;;;;;;;;4947518;28;20494;-78
2023/10/15 02:35:46;;;;;;;6.93;1.52;;;;;;;;;;4947612;28;20395;-77
2023/10/15 02:38:12;;;;;;;8.75;1.77;;;;;;;;;;4929601;28;20047;-77
2023/10/15 02:41:03;;;;;;;11.63;1.92;;;;;;;;;;4958259;28;20039;-78
2023/10/15 02:43:26;;;;;;;8.45;1.58;;;;;;;;;;4967503;28;20030;-78
2023/10/15 02:45:52;;;;;;;6.20;1.48;;;;;;;;;;4948225;28;20093;-77
2023/10/15 02:48:21;;;;;;;9.57;1.60;;;;;;;;;;4957413;28;20504;-77
2023/10/15 02:53:39;;;;;;;8.75;1.55;;;;;;;;;;4973383;28;20047;-78
2023/10/15 02:56:11;;;;;;;9.25;1.55;;;;;;;;;;4972963;28;20411;-77
2023/10/15 02:58:40;;;;;;;8.35;1.58;;;;;;;;;;4958926;28;20034;-78
2023/10/15 03:01:23;;;;;;;8.90;1.48;;;;;;;;;;4941896;28;20034;-77
2023/10/15 03:03:53;;;;;;;9.93;1.50;;;;;;;;;;4959151;28;20035;-77
2023/10/15 03:06:25;;;;;;;10.27;1.77;;;;;;;;;;4947452;28;20047;-78
2023/10/15 03:08:51;;;;;;;9.27;1.35;;;;;;;;;;4963449;28;20118;-78
2023/10/15 03:11:19;;;;;;;7.50;1.55;;;;;;;;;;4957727;28;20045;-78
2023/10/15 03:13:55;;;;;;;7.55;1.50;;;;;;;;;;4948870;28;20047;-78
2023/10/15 03:16:29;;;;;;;10.68;1.58;;;;;;;;;;4957917;28;20102;-77
2023/10/15 03:18:56;;;;;;;9.70;1.52;;;;;;;;;;4972562;28;20043;-77
2023/10/15 03:21:25;;;;;;;9.15;1.63;;;;;;;;;;4972937;28;20047;-78
2023/10/15 03:23:57;;;;;;;10.35;1.80;;;;;;;;;;4957684;28;20697;-78
2023/10/15 03:26:34;;;;;;;10.52;1.63;;;;;;;;;;4955970;28;20073;-76
2023/10/15 03:29:00;;;;;;;8.35;2.28;;;;;;;;;;4963445;28;20101;-76
2023/10/15 03:31:32;;;;;;;8.30;1.55;;;;;;;;;;4955654;28;20042;-77
2023/10/15 03:36:48;;;;;;;9.10;1.40;;;;;;;;;;4978138;28;20555;-76
2023/10/15 03:39:24;;;;;;;7.55;1.45;;;;;;;;;;4976499;28;20035;-77
2023/10/15 03:41:52;;;;;;;8.48;1.50;;;;;;;;;;4946656;28;20043;-76
2023/10/15 03:44:23;;;;;;;7.90;1.50;;;;;;;;;;4940356;28;20039;-77
2023/10/15 03:46:50;;;;;;;7.13;1.60;;;;;;;;;;4938950;28;20141;-76
2023/10/15 03:49:26;;;;;;;12.23;1.85;;;;;;;;;;4963339;28;20102;-77
2023/10/15 03:51:53;;;;;;;11.35;1.63;;;;;;;;;;4955996;28;20501;-78
2023/10/15 03:54:22;;;;;;;8.40;1.45;;;;;;;;;;4958246;28;20038;-79
2023/10/15 03:56:48;;;;;;;9.70;1.80;;;;;;;;;;4938740;28;20034;-78
2023/10/15 03:59:14;;;;;;;7.65;1.60;;;;;;;;;;4940031;28;20055;-76
2023/10/15 04:01:46;;;;;;;14.48;1.73;;;;;;;;;;4978393;28;20062;-77
2023/10/15 04:04:16;;;;;;;8.13;1.58;;;;;;;;;;4940936;28;20098;-77
2023/10/15 04:06:41;;;;;;;11.32;1.58;;;;;;;;;;4956309;28;20438;-77
2023/10/15 04:11:42;;;;;;;8.40;1.55;;;;;;;;;;4956987;28;20691;-77
2023/10/15 04:14:26;;;;;;;7.32;1.60;;;;;;;;;;4956537;28;20039;-77
2023/10/15 04:16:52;;;;;;;10.27;1.40;;;;;;;;;;4955815;28;20121;-77
2023/10/15 04:19:18;;;;;;;6.07;1.63;;;;;;;;;;4940771;28;20117;-76
2023/10/15 04:21:44;;;;;;;7.38;1.58;;;;;;;;;;4946302;28;20577;-77
2023/10/15 04:24:14;;;;;;;10.70;1.90;;;;;;;;;;4963505;28;20377;-77
2023/10/15 04:26:44;;;;;;;8.13;1.45;;;;;;;;;;4956641;28;20031;-77
2023/10/15 04:29:20;;;;;;;8.93;1.55;;;;;;;;;;4955751;28;20038;-78
2023/10/15 04:31:52;;;;;;;8.10;1.50;;;;;;;;;;4956129;28;20085;-77
2023/10/15 04:34:18;;;;;;;11.10;1.70;;;;;;;;;;4947644;28;20043;-78
2023/10/15 04:36:47;;;;;;;7.68;1.58;;;;;;;;;;4956618;28;20034;-78
2023/10/15 04:39:13;;;;;;;8.65;1.63;;;;;;;;;;4963433;28;20499;-78
2023/10/15 04:41:40;;;;;;;7.82;1.73;;;;;;;;;;4945875;28;20049;-78
2023/10/15 04:44:12;;;;;;;9.27;1.80;;;;;;;;;;4940496;28;20157;-77
2023/10/15 04:46:41;;;;;;;5.72;1.40;;;;;;;;;;4938272;28;20783;-77
2023/10/15 04:49:07;;;;;;;10.02;2.00;;;;;;;;;;4972201;28;20065;-77
2023/10/15 04:51:42;;;;;;;9.98;1.38;;;;;;;;;;4955282;28;20034;-77
2023/10/15 04:54:08;;;;;;;6.07;1.17;;;;;;;;;;4974514;28;20043;-77
2023/10/15 04:56:34;;;;;;;9.40;1.60;;;;;;;;;;4953333;28;20508;-78
2023/10/15 04:58:59;;;;;;;10.02;1.70;;;;;;;;;;4963090;28;20041;-78
2023/10/15 05:01:25;;;;;;;10.52;1.73;;;;;;;;;;4961882;28;20062;-78
2023/10/15 05:03:50;;;;;;;10.02;1.50;;;;;;;;;;4939192;28;20042;-76
2023/10/15 05:06:16;;;;;;;9.50;1.85;;;;;;;;;;4955945;28;20388;-76
2023/10/15 05:08:42;;;;;;;10.50;1.60;;;;;;;;;;4955798;28;20031;-76
2023/10/15 05:11:08;;;;;;;10.40;1.23;;;;;;;;;;4939737;28;20038;-77
2023/10/15 05:13:34;;;;;;;8.90;1.85;;;;;;;;;;4955463;28;20045;-77
2023/10/15 05:15:59;;;;;;;8.75;1.58;;;;;;;;;;4940070;28;20047;-76
2023/10/15 05:18:29;;;;;;;7.88;1.65;;;;;;;;;;4954348;28;20110;-76
2023/10/15 05:20:55;;;;;;;8.18;1.33;;;;;;;;;;4961686;28;20031;-78
2023/10/15 05:23:22;;;;;;;8.65;1.73;;;;;;;;;;4945516;28;20410;-77
2023/10/15 05:25:49;;;;;;;7.15;1.48;;;;;;;;;;4970344;28;20431;-76
2023/10/15 05:28:17;;;;;;;7.53;1.33;;;;;;;;;;4956537;28;20043;-77
2023/10/15 05:30:43;;;;;;;9.93;1.42;;;;;;;;;;4939416;28;20039;-77
2023/10/15 05:33:09;;;;;;;6.95;1.35;;;;;;;;;;4954976;28;20055;-77
2023/10/15 05:35:34;;;;;;;5.85;1.55;;;;;;;;;;4956659;28;20043;-78
2023/10/15 05:38:00;;;;;;;9.10;1.67;;;;;;;;;;4957402;28;20063;-78
2023/10/15 05:40:26;;;;;;;7.82;1.40;;;;;;;;;;4956163;28;20110;-77
2023/10/15 05:42:52;;;;;;;10.20;1.80;;;;;;;;;;4954792;28;20103;-78
2023/10/15 05:45:20;;;;;;;14.70;2.30;;;;;;;;;;4952087;28;20039;-77
2023/10/15 05:47:45;;;;;;;6.78;1.50;;;;;;;;;;4949724;28;20506;-78
2023/10/15 05:50:12;;;;;;;8.10;1.77;;;;;;;;;;4971370;28;20041;-77
2023/10/15 05:52:40;;;;;;;8.53;1.20;;;;;;;;;;4961250;28;20221;-78
2023/10/15 05:55:06;;;;;;;7.05;1.50;;;;;;;;;;4962371;28;20035;-77
2023/10/15 05:57:35;;;;;;;8.18;1.77;;;;;;;;;;4958382;28;20046;-78
2023/10/15 06:00:17;;;;;;;12.73;1.75;;;;;;;;;;4939104;28;20506;-78
2023/10/15 06:02:46;;;;;;;7.93;1.90;;;;;;;;;;4968468;28;20503;-78
2023/10/15 06:05:13;;;;;;;10.43;2.47;;;;;;;;;;4938799;28;20039;-78
2023/10/15 06:07:42;;;;;;;11.03;1.77;;;;;;;;;;4939422;28;20062;-77
2023/10/15 06:10:08;;;;;;;12.20;1.67;;;;;;;;;;4958507;28;20039;-77
2023/10/15 06:12:34;;;;;;;8.18;1.55;;;;;;;;;;4948957;28;20041;-78
2023/10/15 06:15:00;;;;;;;11.35;2.63;;;;;;;;;;4959712;28;20035;-77
2023/10/15 06:17:25;;;;;;;12.63;1.58;;;;;;;;;;4974254;28;20525;-77
2023/10/15 06:19:51;;;;;;;11.15;1.88;;;;;;;;;;4958715;28;20062;-76
2023/10/15 06:22:17;;;;;;;10.90;1.60;;;;;;;;;;4957227;28;20133;-76
2023/10/15 06:24:46;;;;;;;10.32;2.33;;;;;;;;;;4944227;28;20075;-77
2023/10/15 06:27:12;;;;;;;12.20;1.60;;;;;;;;;;4957277;28;20582;-77
2023/10/15 06:29:38;;;;;;;7.35;1.88;;;;;;;;;;4948862;28;20043;-77
2023/10/15 06:32:04;;;;;;;9.02;1.80;;;;;;;;;;4940419;28;20495;-79
2023/10/15 06:34:29;;;;;;;8.23;1.45;;;;;;;;;;4943439;28;20055;-79
2023/10/15 06:36:55;;;;;;;10.10;1.60;;;;;;;;;;4957573;28;20062;-79
2023/10/15 06:39:21;;;;;;;9.05;1.90;;;;;;;;;;4959037;28;20043;-79
2023/10/15 06:41:47;;;;;;;6.03;1.23;;;;;;;;;;4963618;28;20058;-80
2023/10/15 06:44:13;;;;;;;8.75;1.38;;;;;;;;;;4942910;28;20082;-80
2023/10/15 06:46:38;;;;;;;8.50;1.33;;;;;;;;;;4956334;28;20074;-79
2023/10/15 06:49:04;;;;;;;7.43;1.42;;;;;;;;;;4949534;28;20046;-79
2023/10/15 06:51:30;;;;;;;10.55;1.88;;;;;;;;;;4964404;28;20039;-79
2023/10/15 06:53:55;;;;;;;10.05;1.60;;;;;;;;;;4953400;28;20414;-78
2023/10/15 06:56:21;;;;;;;6.35;1.45;;;;;;;;;;4974447;28;20449;-79
2023/10/15 06:58:50;;;;;;;8.98;1.55;;;;;;;;;;4923422;28;20489;-79
2023/10/15 07:01:20;;;;;;;8.38;1.38;;;;;;;;;;4947607;28;20511;-79
2023/10/15 07:03:46;;;;;;;5.75;1.25;;;;;;;;;;4964454;28;20131;-79
2023/10/15 07:06:12;;;;;;;7.45;1.60;;;;;;;;;;4940106;28;20067;-80
2023/10/15 07:08:38;;;;;;;6.63;1.45;;;;;;;;;;4959317;28;20031;-79
2023/10/15 07:11:05;;;;;;;7.25;1.40;;;;;;;;;;4964435;28;20533;-79
2023/10/15 07:13:31;;;;;;;6.60;1.25;;;;;;;;;;4963931;28;20102;-77
2023/10/15 07:15:56;;;;;;;8.77;2.33;;;;;;;;;;4948101;28;20035;-78
2023/10/15 07:18:21;;;;;;;11.27;1.40;;;;;;;;;;4939012;28;20050;-77
2023/10/15 07:20:47;;;;;;;7.65;1.33;;;;;;;;;;4937771;28;20070;-79
2023/10/15 07:23:33;;;;;;;9.80;1.40;;;;;;;;;;4943081;28;20121;-79
2023/10/15 07:25:58;;;;;;;9.10;1.48;;;;;;;;;;4879133;29;20131;-78
2023/10/15 07:28:24;;;;;;;9.55;1.60;;;;;;;;;;4879721;29;20117;-78
2023/10/15 07:30:50;;;;;;;10.13;2.38;;;;;;;;;;4883369;29;20044;-79
2023/10/15 07:33:18;;;;;;;8.82;1.73;;;;;;;;;;4889245;29;20516;-78
2023/10/15 07:35:46;;;;;;;10.27;2.08;;;;;;;;;;4901438;29;20103;-79
2023/10/15 07:38:15;;;;;;;6.25;1.35;;;;;;;;;;4915195;29;20044;-79
2023/10/15 07:40:40;;;;;;;8.02;1.38;;;;;;;;;;4895242;29;20068;-79
2023/10/15 07:43:08;;;;;;;8.95;1.65;;;;;;;;;;4902014;29;20091;-79
2023/10/15 07:45:34;;;;;;;8.13;1.30;;;;;;;;;;4911840;29;20040;-79
2023/10/15 07:48:02;;;;;;;10.48;1.40;;;;;;;;;;4900564;29;20099;-78
2023/10/15 07:50:32;;;;;;;7.85;1.42;;;;;;;;;;4882551;29;20164;-79
2023/10/15 07:52:58;;;;;;;6.50;1.45;;;;;;;;;;4864831;29;20064;-79
2023/10/15 07:55:25;;;;;;;5.00;1.08;;;;;;;;;;4899630;29;20063;-79
2023/10/15 07:57:51;;;;;;;4.97;1.42;;;;;;;;;;4873799;29;20040;-79
2023/10/15 08:00:22;;;;;;;7.03;1.30;;;;;;;;;;4881983;29;20055;-80
2023/10/15 08:02:52;;;;;;;6.22;1.10;;;;;;;;;;4908132;28;20426;-79
2023/10/15 08:05:18;;;;;;;5.50;1.33;;;;;;;;;;4940197;28;20078;-80
2023/10/15 08:07:43;;;;;;;7.50;1.00;;;;;;;;;;4946518;28;20055;-79
2023/10/15 08:10:10;;;;;;;6.38;1.13;;;;;;;;;;4956636;28;20123;-80
2023/10/15 08:12:36;;;;;;;5.45;1.05;;;;;;;;;;4961980;28;20077;-78
2023/10/15 08:15:06;;;;;;;5.20;0.93;;;;;;;;;;4958399;28;20039;-79
2023/10/15 08:17:33;;;;;;;5.15;1.05;;;;;;;;;;4954831;28;20038;-79
2023/10/15 08:19:58;;;;;;;4.70;1.00;;;;;;;;;;4959848;28;20135;-81
2023/10/15 08:22:25;;;;;;;6.63;1.45;;;;;;;;;;4956182;28;20038;-80
2023/10/15 08:24:51;;;;;;;7.70;0.90;;;;;;;;;;4957967;28;20047;-79
2023/10/15 08:27:16;;;;;;;5.20;1.23;;;;;;;;;;4938717;28;20418;-79
2023/10/15 08:29:42;;;;;;;6.40;1.20;;;;;;;;;;4955709;28;20051;-80
2023/10/15 08:32:16;;;;;;;4.43;0.80;;;;;;;;;;4961308;28;20046;-80
2023/10/15 08:34:44;;;;;;;5.78;1.00;;;;;;;;;;4955373;28;20027;-79
2023/10/15 08:37:11;;;;;;;3.47;0.80;;;;;;;;;;4956777;28;20081;-78
2023/10/15 08:39:39;;;;;;;5.03;0.88;;;;;;;;;;4958978;28;20035;-79
2023/10/15 08:42:14;;;;;;;3.78;0.80;;;;;;;;;;4938487;28;20622;-78
2023/10/15 08:44:40;;;;;;;6.00;0.80;;;;;;;;;;4946258;28;20039;-81
2023/10/15 08:47:19;;;;;;;5.07;0.95;;;;;;;;;;4943113;28;20657;-82
2023/10/15 08:49:55;;;;;;;4.07;1.05;;;;;;;;;;4952524;28;20607;-81
2023/10/15 08:52:20;;;;;;;2.85;0.68;;;;;;;;;;4947841;28;20757;-81
2023/10/15 08:54:46;;;;;;;6.65;1.23;;;;;;;;;;4947655;28;20035;-81
2023/10/15 08:57:13;;;;;;;6.05;0.88;;;;;;;;;;4946087;28;20106;-81
2023/10/15 08:59:40;;;;;;;5.25;1.35;;;;;;;;;;4978121;28;20038;-81
2023/10/15 09:02:06;;;;;;;3.13;0.93;;;;;;;;;;4957115;28;20503;-83
2023/10/15 09:04:55;;;;;;;4.90;0.80;;;;;;;;;;4920984;28;20502;-83
2023/10/15 09:07:20;;;;;;;3.95;0.90;;;;;;;;;;4954191;28;20171;-85
2023/10/15 09:09:46;;;;;;;6.03;0.95;;;;;;;;;;4961176;28;20058;-82
2023/10/15 09:12:12;;;;;;;5.47;1.20;;;;;;;;;;4960677;28;20138;-78
2023/10/15 09:14:43;;;;;;;3.40;0.70;;;;;;;;;;4956927;28;20122;-78
2023/10/15 09:17:15;;;;;;;4.68;0.80;;;;;;;;;;4945649;28;20043;-77
2023/10/15 09:19:46;;;;;;;4.22;0.82;;;;;;;;;;4937672;28;20035;-77
2023/10/15 09:22:15;;;;;;;3.20;0.70;;;;;;;;;;4956082;28;20039;-77
2023/10/15 09:24:45;;;;;;;4.40;0.68;;;;;;;;;;4954425;28;20039;-78
2023/10/15 09:27:11;;;;;;;3.97;0.70;;;;;;;;;;4933435;28;20126;-79
2023/10/15 09:29:36;;;;;;;5.22;1.10;;;;;;;;;;4931100;28;20498;-78
2023/10/15 09:32:04;;;;;;;4.45;0.93;;;;;;;;;;4945803;28;20031;-78
2023/10/15 09:34:31;;;;;;;3.78;0.75;;;;;;;;;;4939980;28;20033;-78
2023/10/15 09:36:59;;;;;;;3.67;0.73;;;;;;;;;;4952672;28;20050;-79
2023/10/15 09:39:28;;;;;;;4.03;1.00;;;;;;;;;;4959134;28;20137;-79
2023/10/15 09:41:57;;;;;;;3.55;0.82;;;;;;;;;;4961298;28;20039;-78
2023/10/15 09:44:24;;;;;;;3.55;1.00;;;;;;;;;;4959154;28;20844;-78
2023/10/15 09:46:50;;;;;;;3.28;0.70;;;;;;;;;;4958461;28;20035;-78
2023/10/15 09:49:16;;;;;;;3.95;0.90;;;;;;;;;;4942243;28;20043;-78
2023/10/15 09:51:41;;;;;;;3.95;0.80;;;;;;;;;;4948374;28;20042;-78
2023/10/15 09:54:11;;;;;;;4.63;0.70;;;;;;;;;;4943318;28;20101;-78
2023/10/15 09:56:40;;;;;;;5.15;0.90;;;;;;;;;;4963271;28;20042;-78
2023/10/15 09:59:06;;;;;;;3.25;0.90;;;;;;;;;;4950621;28;20513;-79
2023/10/15 10:01:32;;;;;;;2.45;0.63;;;;;;;;;;4943338;28;20035;-79
2023/10/15 10:04:15;;;;;;;3.40;0.70;;;;;;;;;;4959398;28;20038;-80
2023/10/15 10:06:49;;;;;;;5.95;0.80;;;;;;;;;;4972040;28;20542;-79
2023/10/15 10:09:38;;;;;;;3.90;0.80;;;;;;;;;;4964843;28;20551;-78
2023/10/15 10:12:07;;;;;;;3.63;0.82;;;;;;;;;;4959257;28;20035;-78
2023/10/15 10:14:51;;;;;;;4.88;0.80;;;;;;;;;;4960551;28;20046;-78
2023/10/15 10:17:19;;;;;;;3.88;0.60;;;;;;;;;;4955478;28;20523;-79
2023/10/15 10:19:52;;;;;;;4.65;0.82;;;;;;;;;;4947539;28;20043;-80
2023/10/15 10:22:23;;;;;;;2.33;0.50;;;;;;;;;;4934905;28;20041;-79
2023/10/15 10:24:50;;;;;;;8.00;1.80;;;;;;;;;;4962629;28;20118;-77
2023/10/15 10:27:16;;;;;;;4.03;0.75;;;;;;;;;;4953730;28;20386;-79
2023/10/15 10:29:54;;;;;;;3.30;0.70;;;;;;;;;;4949170;28;20035;-80
2023/10/15 10:32:22;;;;;;;1.98;0.45;;;;;;;;;;4963387;28;20143;-78
2023/10/15 10:35:18;;;;;;;2.53;0.45;;;;;;;;;;4962751;28;20027;-77
2023/10/15 10:38:05;;;;;;;3.83;0.75;;;;;;;;;;4947257;28;20036;-77
2023/10/15 10:40:49;;;;;;;;;;;;;;;;;;4949497;28;20034;-77
2023/10/15 10:43:21;;;;;;;3.42;0.75;;;;;;;;;;4964612;28;20408;-79
2023/10/15 10:45:58;;;;;;;2.38;0.60;;;;;;;;;;4946810;28;20557;-79
2023/10/15 10:48:25;;;;;;;4.32;0.85;;;;;;;;;;4956018;28;20035;-80
2023/10/15 10:51:19;;;;;;;3.95;0.60;;;;;;;;;;4963289;28;20031;-78
2023/10/15 10:53:56;;;;;;;3.60;0.77;;;;;;;;;;4948122;28;20487;-80
2023/10/15 10:56:23;;;;;;;2.97;1.02;;;;;;;;;;4957072;28;20492;-80
2023/10/15 10:58:52;;;;;;;5.32;1.23;;;;;;;;;;4958180;28;20039;-79
2023/10/15 11:01:18;;;;;;;1.75;0.52;;;;;;;;;;4940652;28;20467;-81
2023/10/15 11:03:44;;;;;;;1.92;0.43;;;;;;;;;;4964539;28;20042;-80
2023/10/15 11:06:10;;;;;;;2.42;0.63;;;;;;;;;;4947044;28;20714;-77
2023/10/15 11:08:35;;;;;;;3.25;0.73;;;;;;;;;;4959291;28;20050;-77
2023/10/15 11:11:02;;;;;;;3.50;0.70;;;;;;;;;;4955514;28;20043;-80
2023/10/15 11:13:28;;;;;;;2.20;0.50;;;;;;;;;;4938088;28;20038;-79
2023/10/15 11:15:56;;;;;;;1.85;0.50;;;;;;;;;;4978919;28;20039;-78
2023/10/15 11:18:24;;;;;;;3.95;0.70;;;;;;;;;;4956327;28;20039;-79
2023/10/15 11:20:52;;;;;;;3.17;0.60;;;;;;;;;;4956226;28;20035;-78
2023/10/15 11:23:18;;;;;;;5.78;0.70;;;;;;;;;;4942976;28;20038;-78
2023/10/15 11:25:43;;;;;;;2.95;0.60;;;;;;;;;;4940682;28;20090;-80
2023/10/15 11:28:11;;;;;;;2.22;0.52;;;;;;;;;;4957266;28;20031;-78
2023/10/15 11:30:42;;;;;;;2.70;0.50;;;;;;;;;;4941093;28;20039;-78
2023/10/15 11:33:12;;;;;;;3.35;0.65;;;;;;;;;;4955009;28;20171;-78
2023/10/15 11:35:38;;;;;;;4.15;0.50;;;;;;;;;;4946020;28;20054;-77
2023/10/15 11:38:10;;;;;;;3.08;1.48;;;;;;;;;;4956990;28;20039;-78
2023/10/15 11:40:39;;;;;;;4.30;0.95;;;;;;;;;;4967004;28;20130;-79
2023/10/15 11:43:15;;;;;;;2.17;0.45;;;;;;;;;;4959041;28;20033;-80
2023/10/15 11:45:41;;;;;;;4.75;0.77;;;;;;;;;;4947174;28;20831;-79
2023/10/15 11:48:11;;;;;;;2.95;0.60;;;;;;;;;;4973027;28;20035;-79
2023/10/15 11:50:40;;;;;;;2.20;0.50;;;;;;;;;;4956702;28;20598;-78
2023/10/15 11:53:16;;;;;;;1.88;0.40;;;;;;;;;;4955897;28;20043;-79
2023/10/15 11:55:53;;;;;;;4.47;1.42;;;;;;;;;;4954639;28;20039;-79
2023/10/15 11:58:27;;;;;;;5.07;0.80;;;;;;;;;;4955666;28;20039;-80
2023/10/15 12:00:52;;;;;;;3.80;0.50;;;;;;;;;;4956278;28;20083;-79
2023/10/15 12:03:20;;;;;;;3.17;0.63;;;;;;;;;;4938718;28;20450;-79
2023/10/15 12:05:46;;;;;;;3.80;0.63;;;;;;;;;;4962872;28;20503;-79
2023/10/15 12:08:12;;;;;;;3.88;0.70;;;;;;;;;;4940756;28;20141;-79
2023/10/15 12:10:43;;;;;;;2.15;0.80;;;;;;;;;;4954782;28;20058;-80
2023/10/15 12:13:09;;;;;;;2.42;0.68;;;;;;;;;;4961013;28;20798;-79
2023/10/15 12:15:35;;;;;;;3.00;0.60;;;;;;;;;;4955257;28;20039;-79
2023/10/15 12:18:02;;;;;;;3.65;0.80;;;;;;;;;;4956630;28;20098;-80
2023/10/15 12:20:28;;;;;;;2.55;0.70;;;;;;;;;;4954444;28;20038;-80
2023/10/15 12:22:54;;;;;;;3.55;0.50;;;;;;;;;;4978015;28;20042;-80
2023/10/15 12:25:19;;;;;;;2.90;0.60;;;;;;;;;;4957006;28;20077;-77
2023/10/15 12:27:45;;;;;;;2.88;0.60;;;;;;;;;;4953333;28;20038;-79
2023/10/15 12:30:23;;;;;;;3.90;0.50;;;;;;;;;;4955866;28;20113;-78
2023/10/15 12:32:53;;;;;;;2.47;0.60;;;;;;;;;;4961043;28;20031;-78
2023/10/15 12:35:19;;;;;;;3.75;0.63;;;;;;;;;;4955741;28;20040;-79
2023/10/15 12:38:01;;;;;;;4.15;0.60;;;;;;;;;;4954209;28;20046;-78
2023/10/15 12:40:33;;;;;;;3.65;0.70;;;;;;;;;;4961853;28;20026;-80
2023/10/15 12:43:08;;;;;;;1.52;0.40;;;;;;;;;;4949729;28;20030;-80
2023/10/15 12:45:37;;;;;;;2.53;0.50;;;;;;;;;;4939806;28;20090;-79
2023/10/15 12:48:04;;;;;;;1.88;0.50;;;;;;;;;;4955347;28;20065;-80
2023/10/15 12:50:30;;;;;;;;;;;;;;;;;;4955401;28;20399;-80
2023/10/15 12:52:58;;;;;;;1.75;0.38;;;;;;;;;;4960866;28;19918;-79
2023/10/15 12:55:24;;;;;;;1.70;0.40;;;;;;;;;;4945019;28;20041;-80
2023/10/15 12:57:50;;;;;;;3.10;0.60;;;;;;;;;;4957284;28;20038;-79
2023/10/15 13:00:21;;;;;;;3.65;0.70;;;;;;;;;;4971211;28;20043;-79
2023/10/15 13:02:54;;;;;;;1.80;0.50;;;;;;;;;;4945011;28;20600;-79
2023/10/15 13:05:24;;;;;;;3.55;0.60;;;;;;;;;;4939460;28;20507;-79
2023/10/15 13:07:53;;;;;;;4.13;0.50;;;;;;;;;;4976370;28;20039;-80
2023/10/15 13:10:20;;;;;;;2.83;0.80;;;;;;;;;;4940561;28;20058;-80
2023/10/15 13:12:47;;;;;;;2.17;0.53;;;;;;;;;;4939048;28;20042;-78
2023/10/15 13:15:13;;;;;;;3.53;0.73;;;;;;;;;;4956254;28;20039;-80
2023/10/15 13:17:39;;;;;;;3.17;0.50;;;;;;;;;;4933963;28;20031;-80
2023/10/15 13:20:11;;;;;;;1.15;0.32;;;;;;;;;;4953026;28;20628;-80
2023/10/15 13:22:38;;;;;;;3.08;0.60;;;;;;;;;;4958001;28;20486;-79
2023/10/15 13:25:04;;;;;;;2.53;0.60;;;;;;;;;;4944964;28;20127;-79
2023/10/15 13:27:36;;;;;;;2.05;0.43;;;;;;;;;;4959548;28;20042;-80
2023/10/15 13:30:02;;;;;;;3.17;0.60;;;;;;;;;;4952129;28;20399;-79
2023/10/15 13:32:27;;;;;;;2.08;0.60;;;;;;;;;;4958553;28;20042;-79
2023/10/15 13:34:53;;;;;;;2.08;0.50;;;;;;;;;;4960854;28;20053;-79
2023/10/15 13:37:19;;;;;;;2.90;0.60;;;;;;;;;;4972771;28;20515;-79
2023/10/15 13:39:47;;;;;;;2.13;0.60;;;;;;;;;;4958342;28;20146;-80
2023/10/15 13:42:13;;;;;;;2.20;0.47;;;;;;;;;;4957579;28;20125;-78
2023/10/15 13:44:39;;;;;;;1.55;0.50;;;;;;;;;;4958362;28;20063;-79
2023/10/15 13:47:07;;;;;;;3.40;1.10;;;;;;;;;;4955869;28;20045;-79
2023/10/15 13:49:32;;;;;;;4.00;0.50;;;;;;;;;;4957518;28;20034;-79
2023/10/15 13:52:21;;;;;;;2.47;0.40;;;;;;;;;;4956858;28;20050;-78
2023/10/15 13:54:47;;;;;;;4.22;0.70;;;;;;;;;;4943723;28;20035;-78
2023/10/15 13:57:12;;;;;;;2.92;0.40;;;;;;;;;;4929270;28;20059;-79
2023/10/15 13:59:44;;;;;;;3.13;0.50;;;;;;;;;;4943548;28;20566;-79
2023/10/15 14:02:12;;;;;;;1.65;0.40;;;;;;;;;;4938002;28;20083;-79
2023/10/15 14:04:37;;;;;;;2.72;0.50;;;;;;;;;;4938618;28;20051;-79
2023/10/15 14:07:03;;;;;;;3.05;0.50;;;;;;;;;;4926195;28;20043;-79
2023/10/15 14:09:33;;;;;;;3.63;0.70;;;;;;;;;;4911637;29;20115;-78
2023/10/15 14:11:59;;;;;;;3.70;0.65;;;;;;;;;;4910543;28;20039;-78
2023/10/15 14:14:26;;;;;;;2.17;0.60;;;;;;;;;;4912326;28;20051;-78
2023/10/15 14:16:51;;;;;;;3.45;0.52;;;;;;;;;;4920391;28;20043;-79
2023/10/15 14:19:16;;;;;;;3.03;0.60;;;;;;;;;;4919743;29;20102;-78
2023/10/15 14:21:43;;;;;;;3.55;0.50;;;;;;;;;;4927050;29;20044;-79
2023/10/15 14:24:09;;;;;;;2.45;0.60;;;;;;;;;;4923959;28;20733;-79
2023/10/15 14:26:34;;;;;;;3.17;0.68;;;;;;;;;;4927826;28;20044;-79
2023/10/15 14:29:02;;;;;;;1.50;0.45;;;;;;;;;;4936450;28;20065;-79
2023/10/15 14:31:30;;;;;;;;;;;;;;;;;;4930851;28;20046;-79
2023/10/15 14:33:56;;;;;;;3.92;0.63;;;;;;;;;;4965396;28;19976;-79
2023/10/15 14:36:25;;;;;;;3.72;0.57;;;;;;;;;;4973365;28;20132;-78
2023/10/15 14:38:55;;;;;;;1.75;0.52;;;;;;;;;;4956416;28;20493;-78
2023/10/15 14:41:23;;;;;;;2.95;0.45;;;;;;;;;;4940415;28;20039;-79
2023/10/15 14:43:49;;;;;;;4.43;0.60;;;;;;;;;;4972721;28;20470;-77
2023/10/15 14:46:25;;;;;;;2.70;0.60;;;;;;;;;;4950856;28;20042;-79
2023/10/15 14:48:59;;;;;;;1.88;0.60;;;;;;;;;;4941139;28;20038;-77
2023/10/15 14:51:24;;;;;;;2.92;0.68;;;;;;;;;;4946651;28;20086;-79
2023/10/15 14:53:50;;;;;;;2.40;0.40;;;;;;;;;;4957536;28;20027;-78
2023/10/15 14:56:15;;;;;;;1.95;0.50;;;;;;;;;;4958485;28;20039;-79
2023/10/15 14:58:41;;;;;;;1.58;0.55;;;;;;;;;;4932080;28;20043;-79
2023/10/15 15:01:09;;;;;;;6.03;0.60;;;;;;;;;;4932274;28;20046;-78
2023/10/15 15:03:36;;;;;;;2.90;0.50;;;;;;;;;;4959870;28;20035;-79
2023/10/15 15:06:04;;;;;;;3.20;0.80;;;;;;;;;;4972349;28;20636;-79